sensor_id;sensor_type;location;lat;lon;timestamp;P1;durP1;ratioP1;P2;durP2;ratioP2
6434;SDS011;3250;42.694;23.278;2022-11-20T00:01:39;2.93;;;1.00;;
6434;SDS011;3250;42.694;23.278;2022-11-20T00:04:05;4.23;;;1.00;;
6434;SDS011;3250;42.694;23.278;2022-11-20T00:06:31;5.15;;;2.20;;
6434;SDS011;3250;42.694;23.278;2022-11-20T00:08:58;2.53;;;1.20;;
6434;SDS011;3250;42.694;23.278;2022-11-20T00:11:25;6.15;;;1.60;;
6434;SDS011;3250;42.694;23.278;2022-11-20T00:13:52;7.85;;;1.38;;
6434;SDS011;3250;42.694;23.278;2022-11-20T00:16:20;4.95;;;1.35;;
6434;SDS011;3250;42.694;23.278;2022-11-20T00:18:47;2.38;;;1.00;;
6434;SDS011;3250;42.694;23.278;2022-11-20T00:21:21;7.50;;;1.10;;
6434;SDS011;3250;42.694;23.278;2022-11-20T00:23:48;3.65;;;1.00;;
6434;SDS011;3250;42.694;23.278;2022-11-20T00:26:14;2.00;;;1.20;;
6434;SDS011;3250;42.694;23.278;2022-11-20T00:28:42;1.85;;;1.15;;
6434;SDS011;3250;42.694;23.278;2022-11-20T00:31:13;4.47;;;1.40;;
6434;SDS011;3250;42.694;23.278;2022-11-20T00:33:39;3.78;;;1.20;;
6434;SDS011;3250;42.694;23.278;2022-11-20T00:36:10;1.80;;;0.88;;
6434;SDS011;3250;42.694;23.278;2022-11-20T00:38:37;3.08;;;0.90;;
6434;SDS011;3250;42.694;23.278;2022-11-20T00:41:04;2.00;;;0.90;;
6434;SDS011;3250;42.694;23.278;2022-11-20T00:43:31;1.80;;;1.20;;
6434;SDS011;3250;42.694;23.278;2022-11-20T00:46:06;4.07;;;1.10;;
6434;SDS011;3250;42.694;23.278;2022-11-20T00:48:34;3.60;;;1.10;;
6434;SDS011;3250;42.694;23.278;2022-11-20T00:50:59;1.57;;;0.90;;
6434;SDS011;3250;42.694;23.278;2022-11-20T00:53:25;3.17;;;1.38;;
6434;SDS011;3250;42.694;23.278;2022-11-20T00:55:55;2.60;;;1.00;;
6434;SDS011;3250;42.694;23.278;2022-11-20T00:58:21;3.07;;;0.97;;
6434;SDS011;3250;42.694;23.278;2022-11-20T01:00:47;3.45;;;1.15;;
6434;SDS011;3250;42.694;23.278;2022-11-20T01:03:14;6.43;;;1.40;;
6434;SDS011;3250;42.694;23.278;2022-11-20T01:05:40;4.28;;;1.17;;
6434;SDS011;3250;42.694;23.278;2022-11-20T01:08:06;2.90;;;1.20;;
6434;SDS011;3250;42.694;23.278;2022-11-20T01:10:31;4.57;;;1.40;;
6434;SDS011;3250;42.694;23.278;2022-11-20T01:12:56;3.57;;;0.80;;
6434;SDS011;3250;42.694;23.278;2022-11-20T01:15:40;2.83;;;1.20;;
6434;SDS011;3250;42.694;23.278;2022-11-20T01:18:06;3.33;;;1.40;;
6434;SDS011;3250;42.694;23.278;2022-11-20T01:20:35;5.75;;;1.60;;
6434;SDS011;3250;42.694;23.278;2022-11-20T01:23:01;4.50;;;1.25;;
6434;SDS011;3250;42.694;23.278;2022-11-20T01:25:27;2.90;;;1.10;;
6434;SDS011;3250;42.694;23.278;2022-11-20T01:27:53;2.58;;;1.10;;
6434;SDS011;3250;42.694;23.278;2022-11-20T01:30:18;5.00;;;1.33;;
6434;SDS011;3250;42.694;23.278;2022-11-20T01:32:44;1.90;;;1.23;;
6434;SDS011;3250;42.694;23.278;2022-11-20T01:35:09;3.43;;;1.10;;
6434;SDS011;3250;42.694;23.278;2022-11-20T01:37:35;2.20;;;1.30;;
6434;SDS011;3250;42.694;23.278;2022-11-20T01:40:01;2.23;;;1.00;;
6434;SDS011;3250;42.694;23.278;2022-11-20T01:42:26;4.60;;;1.40;;
6434;SDS011;3250;42.694;23.278;2022-11-20T01:48:18;1.90;;;0.93;;
6434;SDS011;3250;42.694;23.278;2022-11-20T01:50:46;1.88;;;0.98;;
6434;SDS011;3250;42.694;23.278;2022-11-20T01:53:13;1.67;;;1.02;;
6434;SDS011;3250;42.694;23.278;2022-11-20T01:55:44;3.67;;;1.00;;
6434;SDS011;3250;42.694;23.278;2022-11-20T01:58:14;2.42;;;1.35;;
6434;SDS011;3250;42.694;23.278;2022-11-20T02:00:42;3.42;;;1.10;;
6434;SDS011;3250;42.694;23.278;2022-11-20T02:03:11;2.90;;;1.07;;
6434;SDS011;3250;42.694;23.278;2022-11-20T02:08:12;6.37;;;1.30;;
6434;SDS011;3250;42.694;23.278;2022-11-20T02:10:39;1.27;;;0.85;;
6434;SDS011;3250;42.694;23.278;2022-11-20T02:13:04;2.50;;;1.13;;
6434;SDS011;3250;42.694;23.278;2022-11-20T02:15:49;2.90;;;1.00;;
6434;SDS011;3250;42.694;23.278;2022-11-20T02:18:16;2.70;;;1.10;;
6434;SDS011;3250;42.694;23.278;2022-11-20T02:20:43;1.90;;;1.10;;
6434;SDS011;3250;42.694;23.278;2022-11-20T02:23:16;1.98;;;0.93;;
6434;SDS011;3250;42.694;23.278;2022-11-20T02:25:45;2.00;;;1.00;;
6434;SDS011;3250;42.694;23.278;2022-11-20T02:28:12;2.50;;;1.48;;
6434;SDS011;3250;42.694;23.278;2022-11-20T02:30:38;2.57;;;1.10;;
6434;SDS011;3250;42.694;23.278;2022-11-20T02:33:03;2.63;;;0.95;;
6434;SDS011;3250;42.694;23.278;2022-11-20T02:37:54;1.87;;;1.03;;
6434;SDS011;3250;42.694;23.278;2022-11-20T02:40:22;1.75;;;0.93;;
6434;SDS011;3250;42.694;23.278;2022-11-20T02:42:47;2.57;;;1.30;;
6434;SDS011;3250;42.694;23.278;2022-11-20T02:45:13;1.90;;;1.00;;
6434;SDS011;3250;42.694;23.278;2022-11-20T02:47:38;3.90;;;1.30;;
6434;SDS011;3250;42.694;23.278;2022-11-20T02:50:04;2.83;;;1.13;;
6434;SDS011;3250;42.694;23.278;2022-11-20T02:52:30;4.05;;;1.30;;
6434;SDS011;3250;42.694;23.278;2022-11-20T02:54:55;3.20;;;1.25;;
6434;SDS011;3250;42.694;23.278;2022-11-20T02:57:21;2.80;;;1.30;;
6434;SDS011;3250;42.694;23.278;2022-11-20T02:59:46;4.33;;;1.70;;
6434;SDS011;3250;42.694;23.278;2022-11-20T03:02:12;4.13;;;1.20;;
6434;SDS011;3250;42.694;23.278;2022-11-20T03:04:37;4.43;;;1.60;;
6434;SDS011;3250;42.694;23.278;2022-11-20T03:07:03;5.70;;;1.50;;
6434;SDS011;3250;42.694;23.278;2022-11-20T03:09:28;4.63;;;1.65;;
6434;SDS011;3250;42.694;23.278;2022-11-20T03:11:54;5.60;;;1.90;;
6434;SDS011;3250;42.694;23.278;2022-11-20T03:14:19;3.77;;;1.50;;
6434;SDS011;3250;42.694;23.278;2022-11-20T03:16:45;4.97;;;1.77;;
6434;SDS011;3250;42.694;23.278;2022-11-20T03:19:11;5.60;;;1.65;;
6434;SDS011;3250;42.694;23.278;2022-11-20T03:21:38;3.53;;;1.23;;
6434;SDS011;3250;42.694;23.278;2022-11-20T03:24:04;2.25;;;1.23;;
6434;SDS011;3250;42.694;23.278;2022-11-20T03:26:29;5.90;;;1.52;;
6434;SDS011;3250;42.694;23.278;2022-11-20T03:28:56;8.00;;;2.10;;
6434;SDS011;3250;42.694;23.278;2022-11-20T03:31:24;3.00;;;1.60;;
6434;SDS011;3250;42.694;23.278;2022-11-20T03:33:51;5.28;;;1.73;;
6434;SDS011;3250;42.694;23.278;2022-11-20T03:36:18;3.20;;;1.70;;
6434;SDS011;3250;42.694;23.278;2022-11-20T03:38:44;4.25;;;1.65;;
6434;SDS011;3250;42.694;23.278;2022-11-20T03:41:11;5.27;;;1.70;;
6434;SDS011;3250;42.694;23.278;2022-11-20T03:43:38;5.18;;;1.30;;
6434;SDS011;3250;42.694;23.278;2022-11-20T03:46:04;2.33;;;1.20;;
6434;SDS011;3250;42.694;23.278;2022-11-20T03:48:30;3.05;;;1.40;;
6434;SDS011;3250;42.694;23.278;2022-11-20T03:51:15;2.20;;;1.50;;
6434;SDS011;3250;42.694;23.278;2022-11-20T03:53:44;2.20;;;1.00;;
6434;SDS011;3250;42.694;23.278;2022-11-20T03:56:11;1.85;;;0.93;;
6434;SDS011;3250;42.694;23.278;2022-11-20T03:58:39;2.78;;;1.10;;
6434;SDS011;3250;42.694;23.278;2022-11-20T04:01:13;3.63;;;1.40;;
6434;SDS011;3250;42.694;23.278;2022-11-20T04:03:43;3.78;;;1.30;;
6434;SDS011;3250;42.694;23.278;2022-11-20T04:06:11;2.22;;;0.90;;
6434;SDS011;3250;42.694;23.278;2022-11-20T04:08:37;4.28;;;1.80;;
6434;SDS011;3250;42.694;23.278;2022-11-20T04:11:13;5.95;;;1.80;;
6434;SDS011;3250;42.694;23.278;2022-11-20T04:13:39;2.13;;;1.05;;
6434;SDS011;3250;42.694;23.278;2022-11-20T04:16:05;2.33;;;1.23;;
6434;SDS011;3250;42.694;23.278;2022-11-20T04:18:32;1.95;;;1.20;;
6434;SDS011;3250;42.694;23.278;2022-11-20T04:20:58;3.10;;;1.13;;
6434;SDS011;3250;42.694;23.278;2022-11-20T04:23:24;3.80;;;1.43;;
6434;SDS011;3250;42.694;23.278;2022-11-20T04:25:49;2.33;;;1.27;;
6434;SDS011;3250;42.694;23.278;2022-11-20T04:28:15;4.03;;;1.23;;
6434;SDS011;3250;42.694;23.278;2022-11-20T04:30:41;2.92;;;1.05;;
6434;SDS011;3250;42.694;23.278;2022-11-20T04:33:06;3.20;;;1.13;;
6434;SDS011;3250;42.694;23.278;2022-11-20T04:35:35;3.00;;;1.00;;
6434;SDS011;3250;42.694;23.278;2022-11-20T04:38:01;4.07;;;1.20;;
6434;SDS011;3250;42.694;23.278;2022-11-20T04:40:27;1.50;;;0.80;;
6434;SDS011;3250;42.694;23.278;2022-11-20T04:42:53;3.35;;;1.23;;
6434;SDS011;3250;42.694;23.278;2022-11-20T04:45:19;4.32;;;1.10;;
6434;SDS011;3250;42.694;23.278;2022-11-20T04:47:45;3.67;;;1.20;;
6434;SDS011;3250;42.694;23.278;2022-11-20T04:50:10;1.80;;;0.90;;
6434;SDS011;3250;42.694;23.278;2022-11-20T04:52:36;3.13;;;1.00;;
6434;SDS011;3250;42.694;23.278;2022-11-20T04:55:02;3.20;;;1.30;;
6434;SDS011;3250;42.694;23.278;2022-11-20T04:57:27;2.50;;;1.23;;
6434;SDS011;3250;42.694;23.278;2022-11-20T04:59:52;3.10;;;1.30;;
6434;SDS011;3250;42.694;23.278;2022-11-20T05:02:18;1.80;;;0.90;;
6434;SDS011;3250;42.694;23.278;2022-11-20T05:04:43;4.03;;;1.10;;
6434;SDS011;3250;42.694;23.278;2022-11-20T05:07:09;3.77;;;1.20;;
6434;SDS011;3250;42.694;23.278;2022-11-20T05:09:34;2.58;;;0.95;;
6434;SDS011;3250;42.694;23.278;2022-11-20T05:11:59;2.40;;;1.07;;
6434;SDS011;3250;42.694;23.278;2022-11-20T05:14:25;1.93;;;0.90;;
6434;SDS011;3250;42.694;23.278;2022-11-20T05:16:50;2.50;;;0.70;;
6434;SDS011;3250;42.694;23.278;2022-11-20T05:19:16;3.50;;;1.15;;
6434;SDS011;3250;42.694;23.278;2022-11-20T05:21:41;2.47;;;1.00;;
6434;SDS011;3250;42.694;23.278;2022-11-20T05:24:06;3.47;;;0.90;;
6434;SDS011;3250;42.694;23.278;2022-11-20T05:26:32;2.03;;;0.90;;
6434;SDS011;3250;42.694;23.278;2022-11-20T05:28:57;2.40;;;0.90;;
6434;SDS011;3250;42.694;23.278;2022-11-20T05:31:23;3.63;;;1.20;;
6434;SDS011;3250;42.694;23.278;2022-11-20T05:33:50;1.52;;;1.40;;
6434;SDS011;3250;42.694;23.278;2022-11-20T05:36:16;2.75;;;1.00;;
6434;SDS011;3250;42.694;23.278;2022-11-20T05:38:42;4.78;;;1.45;;
6434;SDS011;3250;42.694;23.278;2022-11-20T05:41:09;6.63;;;1.60;;
6434;SDS011;3250;42.694;23.278;2022-11-20T05:43:37;3.40;;;1.30;;
6434;SDS011;3250;42.694;23.278;2022-11-20T05:46:04;4.00;;;1.40;;
6434;SDS011;3250;42.694;23.278;2022-11-20T05:48:30;3.67;;;1.30;;
6434;SDS011;3250;42.694;23.278;2022-11-20T05:50:58;1.80;;;1.10;;
6434;SDS011;3250;42.694;23.278;2022-11-20T05:53:24;3.80;;;1.70;;
6434;SDS011;3250;42.694;23.278;2022-11-20T05:55:56;3.60;;;1.30;;
6434;SDS011;3250;42.694;23.278;2022-11-20T05:58:26;3.47;;;1.65;;
6434;SDS011;3250;42.694;23.278;2022-11-20T06:00:51;2.03;;;1.10;;
6434;SDS011;3250;42.694;23.278;2022-11-20T06:03:17;2.47;;;0.90;;
6434;SDS011;3250;42.694;23.278;2022-11-20T06:05:42;4.30;;;1.40;;
6434;SDS011;3250;42.694;23.278;2022-11-20T06:08:08;1.47;;;1.00;;
6434;SDS011;3250;42.694;23.278;2022-11-20T06:10:33;2.50;;;1.03;;
6434;SDS011;3250;42.694;23.278;2022-11-20T06:12:58;3.53;;;1.00;;
6434;SDS011;3250;42.694;23.278;2022-11-20T06:15:24;5.75;;;1.75;;
6434;SDS011;3250;42.694;23.278;2022-11-20T06:17:53;2.22;;;1.20;;
6434;SDS011;3250;42.694;23.278;2022-11-20T06:20:20;1.88;;;1.15;;
6434;SDS011;3250;42.694;23.278;2022-11-20T06:22:46;4.38;;;1.52;;
6434;SDS011;3250;42.694;23.278;2022-11-20T06:25:11;3.42;;;1.60;;
6434;SDS011;3250;42.694;23.278;2022-11-20T06:27:37;2.55;;;1.30;;
6434;SDS011;3250;42.694;23.278;2022-11-20T06:30:02;6.97;;;1.50;;
6434;SDS011;3250;42.694;23.278;2022-11-20T06:32:28;4.30;;;1.65;;
6434;SDS011;3250;42.694;23.278;2022-11-20T06:34:54;3.47;;;1.50;;
6434;SDS011;3250;42.694;23.278;2022-11-20T06:37:19;2.22;;;0.95;;
6434;SDS011;3250;42.694;23.278;2022-11-20T06:39:45;2.80;;;1.13;;
6434;SDS011;3250;42.694;23.278;2022-11-20T06:42:10;7.00;;;2.00;;
6434;SDS011;3250;42.694;23.278;2022-11-20T06:44:35;4.85;;;1.75;;
6434;SDS011;3250;42.694;23.278;2022-11-20T06:47:01;7.25;;;2.30;;
6434;SDS011;3250;42.694;23.278;2022-11-20T06:49:26;3.05;;;1.30;;
6434;SDS011;3250;42.694;23.278;2022-11-20T06:51:52;2.83;;;1.00;;
6434;SDS011;3250;42.694;23.278;2022-11-20T06:54:17;3.13;;;1.40;;
6434;SDS011;3250;42.694;23.278;2022-11-20T06:56:45;5.38;;;1.60;;
6434;SDS011;3250;42.694;23.278;2022-11-20T06:59:13;3.88;;;1.38;;
6434;SDS011;3250;42.694;23.278;2022-11-20T07:01:39;1.58;;;1.05;;
6434;SDS011;3250;42.694;23.278;2022-11-20T07:04:04;4.75;;;1.40;;
6434;SDS011;3250;42.694;23.278;2022-11-20T07:06:30;7.40;;;2.22;;
6434;SDS011;3250;42.694;23.278;2022-11-20T07:08:56;5.65;;;1.60;;
6434;SDS011;3250;42.694;23.278;2022-11-20T07:11:22;4.97;;;1.42;;
6434;SDS011;3250;42.694;23.278;2022-11-20T07:13:48;1.98;;;1.25;;
6434;SDS011;3250;42.694;23.278;2022-11-20T07:16:15;4.57;;;1.48;;
6434;SDS011;3250;42.694;23.278;2022-11-20T07:18:40;3.33;;;1.30;;
6434;SDS011;3250;42.694;23.278;2022-11-20T07:21:06;4.70;;;1.58;;
6434;SDS011;3250;42.694;23.278;2022-11-20T07:23:33;5.55;;;2.05;;
6434;SDS011;3250;42.694;23.278;2022-11-20T07:26:06;3.97;;;1.15;;
6434;SDS011;3250;42.694;23.278;2022-11-20T07:28:35;2.28;;;0.98;;
6434;SDS011;3250;42.694;23.278;2022-11-20T07:31:01;1.58;;;1.20;;
6434;SDS011;3250;42.694;23.278;2022-11-20T07:33:27;3.90;;;1.70;;
6434;SDS011;3250;42.694;23.278;2022-11-20T07:35:53;3.40;;;1.40;;
6434;SDS011;3250;42.694;23.278;2022-11-20T07:38:18;4.00;;;1.42;;
6434;SDS011;3250;42.694;23.278;2022-11-20T07:40:43;3.88;;;1.33;;
6434;SDS011;3250;42.694;23.278;2022-11-20T07:43:09;4.07;;;1.55;;
6434;SDS011;3250;42.694;23.278;2022-11-20T07:45:34;4.55;;;1.63;;
6434;SDS011;3250;42.694;23.278;2022-11-20T07:48:00;5.30;;;1.20;;
6434;SDS011;3250;42.694;23.278;2022-11-20T07:50:25;5.37;;;1.50;;
6434;SDS011;3250;42.694;23.278;2022-11-20T07:52:51;2.85;;;1.40;;
6434;SDS011;3250;42.694;23.278;2022-11-20T07:55:17;4.20;;;1.40;;
6434;SDS011;3250;42.694;23.278;2022-11-20T07:57:42;7.40;;;1.20;;
6434;SDS011;3250;42.694;23.278;2022-11-20T08:00:08;2.78;;;1.83;;
6434;SDS011;3250;42.694;23.278;2022-11-20T08:02:39;3.53;;;1.42;;
6434;SDS011;3250;42.694;23.278;2022-11-20T08:05:05;5.88;;;2.85;;
6434;SDS011;3250;42.694;23.278;2022-11-20T08:07:41;2.72;;;1.10;;
6434;SDS011;3250;42.694;23.278;2022-11-20T08:10:09;1.90;;;1.20;;
6434;SDS011;3250;42.694;23.278;2022-11-20T08:12:36;3.67;;;1.45;;
6434;SDS011;3250;42.694;23.278;2022-11-20T08:15:26;2.90;;;1.83;;
6434;SDS011;3250;42.694;23.278;2022-11-20T08:17:52;5.85;;;2.40;;
6434;SDS011;3250;42.694;23.278;2022-11-20T08:20:23;4.80;;;2.15;;
6434;SDS011;3250;42.694;23.278;2022-11-20T08:22:48;6.80;;;1.83;;
6434;SDS011;3250;42.694;23.278;2022-11-20T08:25:14;7.55;;;2.00;;
6434;SDS011;3250;42.694;23.278;2022-11-20T08:27:39;7.70;;;1.88;;
6434;SDS011;3250;42.694;23.278;2022-11-20T08:30:05;9.52;;;2.50;;
6434;SDS011;3250;42.694;23.278;2022-11-20T08:32:32;5.45;;;1.48;;
6434;SDS011;3250;42.694;23.278;2022-11-20T08:34:59;3.90;;;1.90;;
6434;SDS011;3250;42.694;23.278;2022-11-20T08:37:25;3.85;;;1.50;;
6434;SDS011;3250;42.694;23.278;2022-11-20T08:39:50;5.53;;;1.80;;
6434;SDS011;3250;42.694;23.278;2022-11-20T08:42:17;2.50;;;1.55;;
6434;SDS011;3250;42.694;23.278;2022-11-20T08:44:42;7.40;;;1.92;;
6434;SDS011;3250;42.694;23.278;2022-11-20T08:47:08;5.40;;;1.55;;
6434;SDS011;3250;42.694;23.278;2022-11-20T08:49:33;6.97;;;1.63;;
6434;SDS011;3250;42.694;23.278;2022-11-20T08:51:59;4.72;;;1.65;;
6434;SDS011;3250;42.694;23.278;2022-11-20T08:54:24;5.00;;;1.60;;
6434;SDS011;3250;42.694;23.278;2022-11-20T08:56:50;11.45;;;2.40;;
6434;SDS011;3250;42.694;23.278;2022-11-20T08:59:15;6.70;;;1.80;;
6434;SDS011;3250;42.694;23.278;2022-11-20T09:01:40;5.28;;;2.08;;
6434;SDS011;3250;42.694;23.278;2022-11-20T09:04:06;7.20;;;2.00;;
6434;SDS011;3250;42.694;23.278;2022-11-20T09:06:31;7.05;;;2.60;;
6434;SDS011;3250;42.694;23.278;2022-11-20T09:08:57;9.80;;;2.45;;
6434;SDS011;3250;42.694;23.278;2022-11-20T09:11:23;7.45;;;2.22;;
6434;SDS011;3250;42.694;23.278;2022-11-20T09:13:48;5.18;;;1.92;;
6434;SDS011;3250;42.694;23.278;2022-11-20T09:16:14;8.07;;;3.05;;
6434;SDS011;3250;42.694;23.278;2022-11-20T09:18:39;4.18;;;1.85;;
6434;SDS011;3250;42.694;23.278;2022-11-20T09:21:06;11.50;;;2.17;;
6434;SDS011;3250;42.694;23.278;2022-11-20T09:23:35;8.35;;;1.95;;
6434;SDS011;3250;42.694;23.278;2022-11-20T09:26:05;3.28;;;1.98;;
6434;SDS011;3250;42.694;23.278;2022-11-20T09:28:36;5.13;;;2.08;;
6434;SDS011;3250;42.694;23.278;2022-11-20T09:31:05;6.28;;;2.30;;
6434;SDS011;3250;42.694;23.278;2022-11-20T09:33:32;9.82;;;2.10;;
6434;SDS011;3250;42.694;23.278;2022-11-20T09:35:57;6.50;;;1.90;;
6434;SDS011;3250;42.694;23.278;2022-11-20T09:38:22;8.48;;;3.40;;
6434;SDS011;3250;42.694;23.278;2022-11-20T09:40:58;7.10;;;3.38;;
6434;SDS011;3250;42.694;23.278;2022-11-20T09:49:03;10.85;;;2.78;;
6434;SDS011;3250;42.694;23.278;2022-11-20T09:51:58;7.88;;;3.22;;
6434;SDS011;3250;42.694;23.278;2022-11-20T09:54:27;5.57;;;2.22;;
6434;SDS011;3250;42.694;23.278;2022-11-20T09:57:02;3.65;;;2.10;;
6434;SDS011;3250;42.694;23.278;2022-11-20T09:59:45;5.28;;;2.60;;
6434;SDS011;3250;42.694;23.278;2022-11-20T10:07:55;7.57;;;2.38;;
6434;SDS011;3250;42.694;23.278;2022-11-20T10:10:35;11.68;;;3.15;;
6434;SDS011;3250;42.694;23.278;2022-11-20T10:24:03;3.28;;;1.60;;
6434;SDS011;3250;42.694;23.278;2022-11-20T10:29:36;6.25;;;1.77;;
6434;SDS011;3250;42.694;23.278;2022-11-20T10:32:09;4.20;;;1.92;;
6434;SDS011;3250;42.694;23.278;2022-11-20T10:34:54;2.88;;;1.73;;
6434;SDS011;3250;42.694;23.278;2022-11-20T10:37:26;6.07;;;2.42;;
6434;SDS011;3250;42.694;23.278;2022-11-20T10:39:56;6.10;;;3.65;;
6434;SDS011;3250;42.694;23.278;2022-11-20T10:45:18;16.90;;;5.35;;
6434;SDS011;3250;42.694;23.278;2022-11-20T10:47:45;18.70;;;5.85;;
6434;SDS011;3250;42.694;23.278;2022-11-20T10:50:11;15.68;;;4.20;;
6434;SDS011;3250;42.694;23.278;2022-11-20T10:55:33;15.90;;;4.20;;
6434;SDS011;3250;42.694;23.278;2022-11-20T10:58:12;9.13;;;3.20;;
6434;SDS011;3250;42.694;23.278;2022-11-20T11:00:41;13.95;;;4.75;;
6434;SDS011;3250;42.694;23.278;2022-11-20T11:03:28;7.40;;;2.65;;
6434;SDS011;3250;42.694;23.278;2022-11-20T11:06:00;11.45;;;3.92;;
6434;SDS011;3250;42.694;23.278;2022-11-20T11:08:35;14.75;;;2.83;;
6434;SDS011;3250;42.694;23.278;2022-11-20T11:11:23;6.72;;;1.48;;
6434;SDS011;3250;42.694;23.278;2022-11-20T11:13:51;4.68;;;1.63;;
6434;SDS011;3250;42.694;23.278;2022-11-20T11:16:24;8.83;;;1.70;;
6434;SDS011;3250;42.694;23.278;2022-11-20T11:19:03;6.85;;;1.85;;
6434;SDS011;3250;42.694;23.278;2022-11-20T11:21:31;2.88;;;1.20;;
6434;SDS011;3250;42.694;23.278;2022-11-20T11:24:01;3.10;;;1.37;;
6434;SDS011;3250;42.694;23.278;2022-11-20T11:26:28;3.25;;;1.40;;
6434;SDS011;3250;42.694;23.278;2022-11-20T11:31:25;4.32;;;1.20;;
6434;SDS011;3250;42.694;23.278;2022-11-20T11:34:07;4.25;;;1.30;;
6434;SDS011;3250;42.694;23.278;2022-11-20T11:36:38;3.03;;;1.52;;
6434;SDS011;3250;42.694;23.278;2022-11-20T11:39:05;3.08;;;1.17;;
6434;SDS011;3250;42.694;23.278;2022-11-20T11:41:36;5.18;;;1.60;;
6434;SDS011;3250;42.694;23.278;2022-11-20T11:50:00;4.40;;;1.60;;
6434;SDS011;3250;42.694;23.278;2022-11-20T11:55:15;4.65;;;2.10;;
6434;SDS011;3250;42.694;23.278;2022-11-20T12:00:45;9.15;;;4.50;;
6434;SDS011;3250;42.694;23.278;2022-11-20T12:03:32;6.83;;;2.90;;
6434;SDS011;3250;42.694;23.278;2022-11-20T12:06:03;5.65;;;1.63;;
6434;SDS011;3250;42.694;23.278;2022-11-20T12:11:06;6.30;;;2.50;;
6434;SDS011;3250;42.694;23.278;2022-11-20T12:13:48;4.45;;;1.75;;
6434;SDS011;3250;42.694;23.278;2022-11-20T12:16:19;3.90;;;1.77;;
6434;SDS011;3250;42.694;23.278;2022-11-20T12:18:49;5.07;;;1.92;;
6434;SDS011;3250;42.694;23.278;2022-11-20T12:27:03;4.82;;;2.13;;
6434;SDS011;3250;42.694;23.278;2022-11-20T12:43:20;1.20;;;0.70;;
6434;SDS011;3250;42.694;23.278;2022-11-20T12:57:18;10.83;;;5.17;;
6434;SDS011;3250;42.694;23.278;2022-11-20T13:02:55;3.90;;;2.22;;
6434;SDS011;3250;42.694;23.278;2022-11-20T13:08:20;8.50;;;3.80;;
6434;SDS011;3250;42.694;23.278;2022-11-20T13:13:29;8.32;;;2.80;;
6434;SDS011;3250;42.694;23.278;2022-11-20T13:16:21;5.78;;;2.95;;
6434;SDS011;3250;42.694;23.278;2022-11-20T13:19:00;8.30;;;2.40;;
6434;SDS011;3250;42.694;23.278;2022-11-20T13:24:07;7.07;;;2.30;;
6434;SDS011;3250;42.694;23.278;2022-11-20T13:26:45;2.40;;;1.50;;
6434;SDS011;3250;42.694;23.278;2022-11-20T13:29:11;3.22;;;2.05;;
6434;SDS011;3250;42.694;23.278;2022-11-20T13:31:47;2.78;;;1.55;;
6434;SDS011;3250;42.694;23.278;2022-11-20T13:34:21;4.70;;;1.70;;
6434;SDS011;3250;42.694;23.278;2022-11-20T13:36:56;5.25;;;2.08;;
6434;SDS011;3250;42.694;23.278;2022-11-20T13:39:29;8.15;;;5.30;;
6434;SDS011;3250;42.694;23.278;2022-11-20T13:41:57;16.33;;;11.65;;
6434;SDS011;3250;42.694;23.278;2022-11-20T13:47:26;13.18;;;6.57;;
6434;SDS011;3250;42.694;23.278;2022-11-20T13:49:53;10.90;;;4.72;;
6434;SDS011;3250;42.694;23.278;2022-11-20T13:55:02;14.17;;;6.80;;
6434;SDS011;3250;42.694;23.278;2022-11-20T14:00:33;10.57;;;5.90;;
6434;SDS011;3250;42.694;23.278;2022-11-20T14:03:10;13.18;;;6.68;;
6434;SDS011;3250;42.694;23.278;2022-11-20T14:05:49;11.45;;;5.85;;
6434;SDS011;3250;42.694;23.278;2022-11-20T14:08:35;12.63;;;6.07;;
6434;SDS011;3250;42.694;23.278;2022-11-20T14:11:05;8.88;;;4.63;;
6434;SDS011;3250;42.694;23.278;2022-11-20T14:13:37;7.82;;;4.50;;
6434;SDS011;3250;42.694;23.278;2022-11-20T14:16:02;8.77;;;4.30;;
6434;SDS011;3250;42.694;23.278;2022-11-20T14:18:28;6.32;;;4.18;;
6434;SDS011;3250;42.694;23.278;2022-11-20T14:20:53;7.50;;;4.50;;
6434;SDS011;3250;42.694;23.278;2022-11-20T14:23:26;14.83;;;8.60;;
6434;SDS011;3250;42.694;23.278;2022-11-20T14:25:53;12.50;;;6.53;;
6434;SDS011;3250;42.694;23.278;2022-11-20T14:28:28;10.50;;;5.97;;
6434;SDS011;3250;42.694;23.278;2022-11-20T14:30:56;7.78;;;3.65;;
6434;SDS011;3250;42.694;23.278;2022-11-20T14:33:22;6.80;;;3.95;;
6434;SDS011;3250;42.694;23.278;2022-11-20T14:35:56;12.98;;;5.78;;
6434;SDS011;3250;42.694;23.278;2022-11-20T14:38:27;7.13;;;5.05;;
6434;SDS011;3250;42.694;23.278;2022-11-20T14:40:53;9.07;;;3.67;;
6434;SDS011;3250;42.694;23.278;2022-11-20T14:43:23;7.32;;;3.50;;
6434;SDS011;3250;42.694;23.278;2022-11-20T14:48:40;6.47;;;3.90;;
6434;SDS011;3250;42.694;23.278;2022-11-20T14:51:10;5.17;;;3.37;;
6434;SDS011;3250;42.694;23.278;2022-11-20T14:54:08;10.90;;;5.77;;
6434;SDS011;3250;42.694;23.278;2022-11-20T14:56:33;7.30;;;4.47;;
6434;SDS011;3250;42.694;23.278;2022-11-20T14:58:59;4.85;;;3.13;;
6434;SDS011;3250;42.694;23.278;2022-11-20T15:01:29;10.25;;;6.07;;
6434;SDS011;3250;42.694;23.278;2022-11-20T15:03:59;11.23;;;6.43;;
6434;SDS011;3250;42.694;23.278;2022-11-20T15:06:35;12.07;;;6.83;;
6434;SDS011;3250;42.694;23.278;2022-11-20T15:09:12;16.20;;;8.57;;
6434;SDS011;3250;42.694;23.278;2022-11-20T15:11:39;12.87;;;8.17;;
6434;SDS011;3250;42.694;23.278;2022-11-20T15:14:18;14.95;;;8.57;;
6434;SDS011;3250;42.694;23.278;2022-11-20T15:16:43;19.00;;;10.33;;
6434;SDS011;3250;42.694;23.278;2022-11-20T15:19:19;24.77;;;12.40;;
6434;SDS011;3250;42.694;23.278;2022-11-20T15:21:46;25.92;;;15.02;;
6434;SDS011;3250;42.694;23.278;2022-11-20T15:24:11;27.40;;;14.10;;
6434;SDS011;3250;42.694;23.278;2022-11-20T15:26:37;26.53;;;15.77;;
6434;SDS011;3250;42.694;23.278;2022-11-20T15:29:05;18.73;;;10.07;;
6434;SDS011;3250;42.694;23.278;2022-11-20T15:31:33;17.20;;;9.47;;
6434;SDS011;3250;42.694;23.278;2022-11-20T15:33:59;24.75;;;12.75;;
6434;SDS011;3250;42.694;23.278;2022-11-20T15:36:25;18.97;;;9.50;;
6434;SDS011;3250;42.694;23.278;2022-11-20T15:38:50;21.50;;;10.73;;
6434;SDS011;3250;42.694;23.278;2022-11-20T15:41:16;17.95;;;8.68;;
6434;SDS011;3250;42.694;23.278;2022-11-20T15:43:41;18.80;;;8.02;;
6434;SDS011;3250;42.694;23.278;2022-11-20T15:46:11;16.57;;;8.33;;
6434;SDS011;3250;42.694;23.278;2022-11-20T15:48:39;17.00;;;8.75;;
6434;SDS011;3250;42.694;23.278;2022-11-20T15:53:34;16.43;;;7.33;;
6434;SDS011;3250;42.694;23.278;2022-11-20T15:56:00;12.37;;;6.73;;
6434;SDS011;3250;42.694;23.278;2022-11-20T15:58:26;8.75;;;3.17;;
6434;SDS011;3250;42.694;23.278;2022-11-20T16:00:52;7.63;;;3.80;;
6434;SDS011;3250;42.694;23.278;2022-11-20T16:03:17;8.73;;;4.40;;
6434;SDS011;3250;42.694;23.278;2022-11-20T16:05:43;9.50;;;5.07;;
6434;SDS011;3250;42.694;23.278;2022-11-20T16:08:09;7.17;;;4.00;;
6434;SDS011;3250;42.694;23.278;2022-11-20T16:10:34;7.00;;;4.50;;
6434;SDS011;3250;42.694;23.278;2022-11-20T16:13:00;17.13;;;10.60;;
6434;SDS011;3250;42.694;23.278;2022-11-20T16:15:55;17.10;;;10.90;;
6434;SDS011;3250;42.694;23.278;2022-11-20T16:18:23;21.40;;;12.20;;
6434;SDS011;3250;42.694;23.278;2022-11-20T16:20:50;27.77;;;14.50;;
6434;SDS011;3250;42.694;23.278;2022-11-20T16:23:17;38.80;;;23.77;;
6434;SDS011;3250;42.694;23.278;2022-11-20T16:25:43;43.07;;;30.97;;
6434;SDS011;3250;42.694;23.278;2022-11-20T16:28:09;50.58;;;38.53;;
6434;SDS011;3250;42.694;23.278;2022-11-20T16:30:35;57.43;;;40.67;;
6434;SDS011;3250;42.694;23.278;2022-11-20T16:33:00;56.60;;;42.75;;
6434;SDS011;3250;42.694;23.278;2022-11-20T16:35:27;50.60;;;37.27;;
6434;SDS011;3250;42.694;23.278;2022-11-20T16:37:53;55.23;;;37.17;;
6434;SDS011;3250;42.694;23.278;2022-11-20T16:40:19;50.67;;;36.07;;
6434;SDS011;3250;42.694;23.278;2022-11-20T16:42:44;55.60;;;36.67;;
6434;SDS011;3250;42.694;23.278;2022-11-20T16:45:10;49.73;;;35.23;;
6434;SDS011;3250;42.694;23.278;2022-11-20T16:47:35;42.40;;;30.73;;
6434;SDS011;3250;42.694;23.278;2022-11-20T16:50:01;45.38;;;29.83;;
6434;SDS011;3250;42.694;23.278;2022-11-20T16:52:28;32.43;;;20.03;;
6434;SDS011;3250;42.694;23.278;2022-11-20T16:54:55;31.17;;;19.20;;
6434;SDS011;3250;42.694;23.278;2022-11-20T16:57:20;31.80;;;20.00;;